Date,TemperatureHighF,TemperatureAvgF,TemperatureLowF,DewpointHighF,DewpointAvgF,DewpointLowF,HumidityHigh,HumidityAvg,HumidityLow,PressureMaxIn,PressureMinIn,WindSpeedMaxMPH,WindSpeedAvgMPH,GustSpeedMaxMPH,PrecipitationSumIn
2013-1-1,50.7,39.8,31.1,33.5,27.8,22.0,81,63,42,30.07,29.95,10,3,0,0.00
2013-1-2,53.6,42.4,34.5,41.9,36.6,33.2,94,80,56,30.12,29.98,15,3,0,0.00
2013-1-3,45.2,37.2,32.4,29.7,25.2,20.6,84,63,41,30.14,30.04,15,5,0,0.00
2013-1-4,42.1,35.8,31.4,32.5,29.0,25.9,87,76,56,30.16,30.08,18,4,0,0.00
2013-1-5,48.7,38.0,32.1,32.9,29.3,27.2,87,72,46,30.11,29.97,5,2,0,0.00
2013-1-6,53.1,38.5,28.7,36.4,31.9,27.7,96,78,46,30.04,29.92,9,3,0,0.00
2013-1-7,57.5,43.0,34.0,39.4,35.1,32.1,93,75,46,30.03,29.91,6,2,0,0.00
2013-1-8,58.5,42.7,32.8,39.1,35.1,31.5,95,76,45,30.00,29.88,10,2,0,0.00
2013-1-9,55.3,41.7,33.3,38.7,32.1,26.3,97,71,41,29.93,29.81,12,4,0,0.00
2013-1-10,49.3,40.2,34.5,34.8,30.3,25.4,84,68,51,30.11,29.88,14,5,0,0.00
2013-1-11,48.9,40.2,33.4,34.8,30.2,27.6,83,68,45,30.25,30.12,11,3,0,0.00
2013-1-12,55.0,40.5,31.3,37.7,32.5,28.9,92,75,42,30.20,30.06,9,2,0,0.00
2013-1-13,52.1,42.0,32.0,40.0,35.3,30.9,96,78,57,30.13,29.95,5,1,0,0.00
2013-1-14,48.6,43.4,39.3,42.6,39.9,38.2,96,87,75,29.89,29.47,16,4,0,0.50
2013-1-15,48.7,41.5,37.7,38.0,34.0,30.8,92,75,52,30.09,29.74,14,5,0,0.03
2013-1-16,52.0,42.3,33.0,34.6,31.9,28.8,88,68,42,30.08,29.91,9,3,0,0.00
2013-1-17,51.7,42.3,36.8,36.5,32.0,28.0,80,67,45,29.97,29.85,14,6,0,0.00
2013-1-18,43.8,36.0,31.7,29.9,28.1,24.9,88,73,52,30.17,29.97,14,6,0,0.00
2013-1-19,53.4,40.0,28.9,35.5,30.6,27.0,91,70,45,30.16,30.03,15,4,0,0.00
2013-1-20,48.8,43.6,40.8,35.7,31.8,28.0,81,63,47,30.34,30.18,16,5,0,0.00
2013-1-21,50.8,40.3,30.9,40.7,31.8,28.9,95,73,47,30.29,30.03,7,2,0,0.12
2013-1-22,52.4,45.4,41.1,48.5,42.3,38.8,100,89,68,29.94,29.71,12,4,0,0.20
2013-1-23,51.3,43.9,38.5,41.8,37.0,31.2,97,78,49,29.93,29.77,7,3,0,0.01
2013-1-24,53.6,43.2,34.8,39.0,35.5,32.5,96,76,49,29.86,29.69,11,3,0,0.00
2013-1-25,46.4,41.9,33.7,36.5,24.4,12.0,78,51,29,29.77,29.62,22,6,0,0.00
2013-1-26,45.0,35.7,31.2,28.7,19.0,11.7,87,52,27,29.85,29.65,15,8,0,0.00
2013-1-27,44.9,35.4,29.0,28.5,25.0,22.9,80,65,46,30.03,29.89,8,3,0,0.00
2013-1-28,42.1,37.7,32.7,31.9,29.0,26.0,81,70,63,30.26,30.12,12,5,0,0.00
2013-1-29,42.9,36.2,34.4,33.4,29.5,28.2,81,76,68,30.30,30.25,4,1,0,0.00
2013-1-30,49.5,44.1,40.0,40.4,36.0,33.9,83,73,59,30.43,30.29,11,3,0,0.00
2013-1-31,57.1,46.8,33.2,34.8,31.6,26.4,95,58,32,30.53,30.43,8,3,0,0.00
2013-2-1,57.4,45.9,34.8,46.1,36.1,30.7,89,70,50,30.50,30.22,6,2,0,0.00
2013-2-2,67.2,53.6,47.3,55.0,48.7,41.4,99,84,60,30.16,29.96,17,3,0,0.08
2013-2-3,54.4,47.4,43.2,40.2,32.5,28.5,74,57,40,30.31,30.17,18,6,0,0.00
2013-2-4,50.0,44.5,39.8,47.3,40.6,30.6,96,87,58,30.14,29.81,8,3,0,0.25
2013-2-5,51.7,44.7,41.2,40.8,31.4,27.0,82,60,43,30.22,30.03,13,7,0,0.00
2013-2-6,49.4,42.4,38.2,42.3,38.1,31.0,100,85,65,30.01,29.78,9,4,0,0.24
2013-2-7,51.1,43.0,36.9,42.0,35.9,28.6,96,77,50,29.94,29.81,15,4,0,0.00
2013-2-8,39.9,34.5,31.5,29.1,24.5,18.1,85,66,48,30.22,29.94,17,7,0,0.00
2013-2-9,45.9,36.5,31.7,28.1,26.0,21.9,81,66,45,30.28,30.16,13,4,0,0.00
2013-2-10,49.4,38.6,28.8,32.1,28.2,24.1,90,67,41,30.19,30.08,7,2,0,0.00
2013-2-11,47.4,40.2,35.7,33.7,29.1,25.9,80,64,46,30.38,30.12,18,5,0,0.00
2013-2-12,48.7,38.5,30.5,36.3,28.9,25.8,97,69,45,30.40,30.02,12,4,0,0.16
2013-2-13,47.7,40.8,36.5,38.7,33.4,29.2,100,76,54,30.25,29.99,15,5,0,0.05
2013-2-14,55.0,42.5,33.8,36.6,33.2,29.0,93,71,38,30.30,30.12,13,3,0,0.00
2013-2-15,44.9,41.5,36.9,40.7,37.6,35.2,96,86,71,30.08,29.86,11,3,0,0.21
2013-2-16,40.8,35.5,32.7,32.3,27.0,20.7,84,71,48,30.28,29.99,18,8,0,0.00
2013-2-17,43.3,34.7,28.5,29.2,26.7,23.0,92,73,52,30.32,30.18,5,2,0,0.00
2013-2-18,43.2,38.9,35.4,42.6,37.5,29.1,100,95,70,30.15,29.77,13,4,0,1.11
2013-2-19,42.9,38.8,35.5,39.4,31.9,26.8,94,76,61,30.08,29.92,16,5,0,0.01
2013-2-20,46.3,37.8,31.4,33.5,29.8,26.8,91,73,56,30.20,30.09,17,4,0,0.00
2013-2-21,47.9,37.8,32.8,31.6,28.3,23.6,85,69,50,30.27,30.20,18,5,0,0.00
2013-2-22,48.8,39.8,32.6,31.6,28.9,24.7,88,66,46,30.27,30.11,9,3,0,0.00
2013-2-23,48.6,40.7,35.1,34.2,30.7,26.7,88,68,49,30.23,30.10,15,5,0,0.00
2013-2-24,45.8,38.0,33.4,34.0,29.0,23.4,91,70,51,30.34,30.13,18,6,0,0.00
2013-2-25,45.0,36.8,31.6,28.5,25.7,22.8,78,64,45,30.41,30.34,13,4,0,0.00
2013-2-26,52.0,40.8,31.4,38.5,29.8,24.1,93,67,40,30.39,30.14,7,3,0,0.04
2013-2-27,58.5,46.1,38.7,46.0,39.9,35.6,98,81,48,30.07,29.88,16,5,0,0.08
2013-2-28,62.9,49.2,38.7,39.7,35.8,32.2,92,63,35,30.15,30.02,8,2,0,0.00
2013-3-1,57.7,47.5,40.3,49.9,38.6,35.2,92,72,51,30.09,29.65,7,2,0,0.18
2013-3-2,46.3,41.0,35.8,34.3,30.1,26.9,84,65,47,30.16,29.96,22,8,0,0.00
2013-3-3,46.7,39.1,34.3,31.5,27.4,22.0,82,63,45,30.16,30.07,18,5,0,0.00
2013-3-4,53.1,40.7,30.1,38.0,29.7,25.7,88,67,36,30.11,29.95,12,3,0,0.00
2013-3-5,58.9,45.9,37.2,37.8,33.8,28.7,88,65,35,30.24,30.10,11,4,0,0.00
2013-3-6,61.4,48.0,35.6,40.9,35.2,31.3,88,64,34,30.23,30.10,16,3,0,0.00
2013-3-7,68.8,52.8,39.2,47.1,40.3,34.4,91,66,30,30.17,29.89,14,3,0,0.00
2013-3-8,67.9,58.7,49.8,50.5,43.9,36.0,84,60,34,29.88,29.70,15,4,0,0.00
2013-3-9,74.8,60.8,48.7,45.0,40.5,35.5,72,49,27,29.96,29.80,11,3,0,0.00
2013-3-10,64.9,50.4,39.0,54.0,41.0,25.6,86,70,56,30.07,29.73,26,7,0,0.04
2013-3-11,55.0,43.4,34.4,30.1,22.3,15.7,78,45,23,30.26,30.11,18,7,0,0.00
2013-3-12,65.7,47.3,32.1,44.0,28.5,21.6,75,51,24,30.24,30.01,9,3,0,0.00
2013-3-13,71.2,56.0,45.0,59.1,46.0,38.8,97,71,44,30.04,29.66,11,2,0,0.26
2013-3-14,47.7,42.4,38.2,26.8,24.7,22.8,56,49,40,30.31,30.13,22,12,0,0.00
2013-3-15,60.1,44.4,31.1,38.2,31.1,26.5,87,62,38,30.33,30.18,8,2,0,0.00
2013-3-16,62.2,49.5,36.5,40.8,35.9,32.6,89,62,38,30.18,30.03,14,4,0,0.00
2013-3-17,67.0,52.9,38.3,40.7,35.7,27.7,89,56,23,30.22,29.98,8,3,0,0.00
2013-3-18,70.3,60.9,54.2,61.5,51.8,45.5,100,73,50,29.96,29.55,9,2,0,0.99
2013-3-19,74.7,66.9,59.7,55.7,51.3,48.3,77,58,41,29.95,29.87,19,6,0,0.00
2013-3-20,62.8,56.7,53.5,55.7,48.5,45.1,91,74,54,29.92,29.53,6,2,0,0.14
2013-3-21,55.4,46.0,40.5,37.9,30.8,26.1,83,56,37,30.02,29.78,24,9,0,0.00
2013-3-22,66.1,50.0,35.8,40.1,32.7,26.1,82,55,22,29.99,29.77,8,3,0,0.00
2013-3-23,57.9,52.1,47.0,43.9,38.9,33.0,79,61,46,29.99,29.81,14,6,0,0.00
2013-3-24,69.8,53.7,41.2,50.5,40.2,32.1,78,61,44,29.96,29.70,11,4,0,0.00
2013-3-25,60.5,52.5,44.3,43.0,37.1,32.8,72,56,41,29.97,29.70,19,9,0,0.00
2013-3-26,56.5,46.7,38.3,33.0,30.3,25.7,77,55,34,30.18,30.03,15,6,0,0.00
2013-3-27,62.0,49.7,41.3,46.6,35.2,26.3,78,58,41,30.18,30.02,11,4,0,0.02
2013-3-28,63.9,56.7,51.1,55.8,51.0,45.8,88,81,73,30.00,29.87,10,4,0,0.11
2013-3-29,68.1,58.5,51.7,52.8,49.8,44.4,93,74,48,30.01,29.84,16,4,0,0.00
2013-3-30,66.2,54.2,47.3,40.4,35.5,30.8,67,50,32,30.15,30.03,15,7,0,0.00
2013-3-31,63.5,53.8,48.2,46.7,41.3,37.2,72,62,52,30.12,29.99,22,6,0,0.00
2013-4-1,68.0,54.8,43.0,47.0,33.9,14.2,77,50,15,30.29,30.11,16,4,0,0.00
2013-4-2,65.5,58.0,51.1,55.6,50.6,46.4,90,76,58,30.11,29.66,7,3,0,0.13
2013-4-3,61.4,55.7,52.0,54.7,47.1,42.1,95,73,53,29.89,29.55,22,7,0,0.20
2013-4-4,74.4,59.9,47.3,48.4,44.7,41.6,88,60,34,30.05,29.92,15,3,0,0.00
2013-4-5,81.8,64.2,49.0,58.2,45.7,39.0,73,54,23,30.08,29.91,9,3,0,0.00
2013-4-6,66.4,63.0,59.9,60.6,56.2,53.1,94,78,65,29.95,29.03,22,7,0,0.71
2013-4-7,62.5,54.8,46.9,59.3,48.2,37.0,91,78,53,29.65,29.04,22,7,0,0.20
2013-4-8,66.4,53.7,42.7,42.2,38.3,34.5,83,58,34,29.92,29.75,13,4,0,0.00
2013-4-9,71.3,58.8,48.4,48.0,42.4,35.1,81,57,26,29.92,29.77,16,4,0,0.00
2013-4-10,62.7,54.1,48.8,42.5,36.1,26.7,77,52,28,29.98,29.82,16,5,0,0.00
2013-4-11,58.8,48.7,41.8,43.2,36.6,30.1,81,64,38,30.01,29.94,14,5,0,0.01
2013-4-12,62.5,50.5,41.4,41.3,36.4,28.7,86,61,31,30.01,29.92,18,5,0,0.00
2013-4-13,64.8,52.7,40.1,38.8,34.1,29.1,84,52,29,30.08,29.95,11,4,0,0.00
2013-4-14,73.1,59.0,45.1,50.9,43.2,36.0,79,57,38,30.01,29.71,18,4,0,0.00
2013-4-15,73.0,63.0,53.2,52.0,46.6,39.8,79,56,36,29.86,29.70,14,6,0,0.00
2013-4-16,83.5,66.2,52.9,58.0,46.1,40.6,69,50,27,29.91,29.78,11,4,0,0.00
2013-4-17,75.6,68.4,61.0,58.1,55.4,50.0,81,64,41,29.85,29.74,5,2,0,0.00
2013-4-18,81.6,67.5,55.1,57.2,53.7,49.8,86,64,35,29.79,29.62,12,4,0,0.00
2013-4-19,60.7,54.6,49.2,49.5,34.7,27.2,69,48,31,30.03,29.73,22,13,0,0.00
2013-4-20,64.7,51.4,42.1,45.4,35.2,28.9,92,56,30,30.07,29.84,16,6,0,0.04
2013-4-21,57.3,49.4,44.1,44.7,40.9,36.0,97,74,46,30.00,29.75,22,9,0,0.24
2013-4-22,65.3,52.1,39.7,39.6,34.1,27.2,88,55,27,30.22,30.05,16,5,0,0.00
2013-4-23,68.4,54.8,43.1,43.3,37.3,33.2,75,53,32,30.28,30.14,11,3,0,0.00
2013-4-24,60.6,59.2,57.7,52.9,51.4,50.0,77,75,73,29.77,29.74,7,4,0,0.00
2013-4-25,76.5,63.2,48.8,51.8,43.6,31.0,79,52,25,29.81,29.66,8,3,0,0.00
2013-4-26,69.4,59.4,53.5,51.2,44.3,39.0,72,58,35,29.75,29.59,22,5,0,0.01
2013-4-27,69.9,58.4,46.8,47.5,40.5,34.7,80,54,31,30.03,29.82,15,6,0,0.03
2013-4-28,73.5,60.5,48.3,48.0,40.0,27.2,77,52,20,30.14,30.04,18,4,0,0.00
2013-4-29,80.5,64.9,50.9,57.8,44.8,35.9,68,50,26,30.12,29.92,12,3,0,0.00
2013-4-30,64.7,61.8,57.0,55.1,51.7,27.3,76,70,31,29.88,29.72,7,3,0,0.16
2013-5-1,64.1,56.0,50.1,46.1,43.1,38.9,78,62,41,29.75,29.61,20,8,0,0.00
2013-5-2,61.8,53.2,43.7,45.5,40.5,36.7,81,63,42,29.92,29.81,18,7,0,0.00
2013-5-3,69.4,56.2,44.2,50.2,42.8,38.6,80,62,40,29.99,29.89,16,3,0,0.00
2013-5-4,74.7,58.7,48.0,52.5,45.4,40.7,78,62,37,30.04,29.94,12,3,0,0.03
2013-5-5,76.7,61.2,44.4,51.5,45.2,39.8,84,59,30,30.12,29.97,9,3,0,0.01
2013-5-6,79.1,66.6,50.8,53.5,47.3,41.1,78,53,30,30.03,29.81,16,5,0,0.00
2013-5-7,65.8,59.6,55.1,48.5,41.8,36.2,67,52,36,30.11,29.98,25,13,0,0.00
2013-5-8,78.5,62.3,45.5,43.4,38.7,26.9,79,47,17,30.16,29.99,13,5,0,0.00
2013-5-9,88.6,68.8,50.8,43.0,38.5,30.4,70,37,17,30.05,29.87,10,3,0,0.00
2013-5-10,73.8,63.8,57.5,58.4,51.5,46.7,83,64,48,29.91,29.70,6,2,0,0.10
2013-5-12,85.6,76.7,57.8,56.0,51.1,27.4,59,41,31,29.80,29.73,6,3,0,0.00
2013-5-13,88.0,73.7,56.7,58.8,50.6,31.0,65,46,26,29.97,29.84,9,4,0,0.00
2013-5-14,93.5,74.8,57.5,59.5,51.9,41.8,65,47,21,29.97,29.83,9,3,0,0.00
2013-5-15,87.0,73.1,62.5,61.1,55.3,45.0,67,54,34,29.99,29.83,14,4,0,0.00
2013-5-16,75.2,67.5,61.1,56.1,53.0,50.1,67,60,43,30.01,29.91,18,8,0,0.00
2013-5-17,80.2,64.9,54.9,51.5,48.0,42.0,69,56,25,30.07,29.95,11,5,0,0.00
2013-5-19,75.8,65.9,62.5,58.4,55.9,52.6,79,70,51,29.61,29.54,14,5,0,0.30
2013-5-20,63.8,63.7,63.5,34.2,31.2,28.3,33,29,26,29.54,29.54,6,4,0,0.00
2013-5-21,72.2,71.6,71.2,46.4,44.1,42.5,39,37,35,29.78,29.78,3,1,0,0.00
2013-5-22,92.5,81.7,69.8,62.8,50.7,40.5,50,34,23,29.84,29.72,8,4,0,0.00
2013-5-23,88.0,75.1,64.5,53.0,44.1,35.8,56,35,17,29.89,29.81,15,6,0,0.00
2013-5-24,87.6,73.9,60.6,50.4,46.0,41.7,56,39,23,29.96,29.84,14,5,0,0.00
2013-5-25,90.6,76.3,64.0,60.5,53.2,45.4,54,45,30,30.06,29.95,12,4,0,0.00
2013-5-26,87.4,80.4,72.9,57.8,53.2,42.3,48,39,28,30.15,30.04,11,5,0,0.00
2013-5-27,81.8,76.0,71.4,57.9,52.4,41.8,48,44,32,30.13,30.08,18,9,0,0.00
2013-5-28,77.7,72.9,70.9,49.9,37.6,25.5,38,28,18,30.09,30.03,18,11,0,0.00
2013-5-29,66.8,66.8,66.8,-73.7,-73.7,-73.7,0,0,100,29.94,29.94,2,2,0,0.00
2013-6-2,72.7,71.6,70.4,55.3,53.2,49.1,54,52,46,29.75,29.73,6,4,0,0.00
2013-6-3,87.7,76.2,67.8,60.6,51.2,34.2,53,42,28,29.87,29.73,13,5,0,0.00
2013-6-4,93.6,78.1,64.2,60.8,51.8,33.7,69,45,12,30.02,29.92,9,4,0,0.00
2013-6-5,91.1,79.2,69.6,65.1,61.5,57.9,74,56,33,30.08,29.99,13,4,0,0.00
2013-6-6,83.7,76.9,71.0,64.2,61.3,52.2,77,59,43,30.02,29.87,12,4,0,0.00
2013-6-7,90.3,77.9,67.5,61.0,57.4,51.3,69,51,30,29.87,29.73,16,5,0,0.00
2013-6-8,91.0,77.2,65.0,57.3,54.5,49.3,74,48,27,29.88,29.75,10,4,0,0.00
2013-6-9,84.9,75.6,67.7,64.6,60.1,55.0,69,59,46,29.85,29.77,9,3,0,0.00
2013-6-10,85.2,76.8,70.6,62.7,59.6,57.3,73,56,40,29.83,29.75,20,6,0,0.00
2013-6-11,84.3,76.7,72.1,69.1,64.8,60.4,79,67,54,29.84,29.78,16,6,0,0.00
2013-6-12,93.8,83.2,75.3,69.3,68.2,66.9,78,61,44,29.81,29.74,18,6,0,0.00
2013-6-13,99.1,87.3,76.6,70.4,68.4,65.4,78,55,36,29.84,29.75,21,6,0,0.00
2013-6-14,97.0,85.6,75.1,70.2,67.4,64.5,70,55,40,29.91,29.79,16,6,0,0.00
2013-6-15,85.3,79.7,75.0,74.4,70.4,66.9,93,74,61,29.87,29.79,10,3,0,0.37
2013-6-16,92.6,82.4,73.0,71.8,68.7,62.6,89,66,42,29.78,29.62,12,4,0,0.00
2013-6-17,94.8,82.5,71.5,70.8,66.3,61.8,72,59,41,29.68,29.49,10,4,0,0.00
2013-6-18,93.1,83.8,76.3,72.7,70.6,68.3,85,66,46,29.57,29.49,11,4,0,0.00
2013-6-19,83.2,80.9,77.3,75.4,74.0,71.0,93,79,69,29.55,29.43,14,6,0,0.21
2013-6-22,81.5,77.1,70.1,67.3,66.3,65.5,87,69,60,29.75,29.69,10,4,0,0.00
2013-6-23,80.9,75.7,70.7,71.6,68.4,66.8,90,78,68,29.75,29.68,6,2,0,0.04
2013-6-24,86.7,77.0,69.6,70.1,68.3,65.3,97,76,51,29.69,29.62,11,2,0,0.10
2013-6-25,85.8,79.5,72.3,70.2,68.6,67.0,84,70,57,29.77,29.70,15,5,0,0.00
2013-6-26,77.4,72.2,70.0,71.4,69.5,67.4,98,91,72,29.72,29.36,12,4,0,0.51
2013-6-27,86.3,82.4,77.4,69.9,67.2,65.3,72,60,51,29.66,29.58,11,5,0,0.00
2013-6-28,86.0,77.3,72.6,67.8,66.1,64.3,81,69,51,29.74,29.69,16,6,0,0.00
2013-6-29,93.8,80.5,69.7,67.6,65.8,63.5,88,63,39,29.89,29.77,13,4,0,0.03
2013-6-30,88.1,79.6,71.3,68.4,66.6,64.8,82,65,51,29.98,29.90,14,5,0,0.00
2013-7-1,90.5,80.8,73.2,68.1,65.6,63.3,76,61,47,29.95,29.85,14,6,0,0.00
2013-7-2,89.4,79.8,73.0,68.4,65.0,61.2,75,61,40,29.95,29.83,9,4,0,0.00
2013-7-3,85.3,78.3,73.9,75.2,70.3,67.2,91,76,66,29.82,29.62,8,3,0,0.30
2013-7-4,84.0,78.3,73.6,77.6,74.6,71.7,95,88,78,29.68,29.62,6,2,0,0.28
2013-7-5,98.2,85.5,77.3,78.9,77.1,75.9,96,77,52,29.69,29.58,13,5,0,0.01
2013-7-6,95.2,87.6,82.2,78.9,77.5,76.3,86,72,57,29.85,29.70,15,6,0,0.00
2013-7-7,99.5,87.6,76.2,77.5,75.1,73.2,90,68,47,29.92,29.85,12,5,0,0.00
2013-7-8,102.4,90.6,80.7,78.2,76.5,74.5,87,65,43,29.97,29.84,10,4,0,0.00
2013-7-9,102.9,90.6,80.5,77.2,74.8,70.4,85,62,42,29.89,29.73,8,4,0,0.00
2013-7-10,100.8,90.4,80.1,76.7,74.2,70.0,84,61,40,29.81,29.72,11,5,0,0.00
2013-7-11,100.2,89.8,81.5,77.1,75.7,74.0,82,64,44,29.84,29.76,12,5,0,0.00
2013-7-12,100.4,89.6,80.1,76.5,74.8,72.8,82,63,44,29.84,29.80,16,5,0,0.00
2013-7-13,97.7,84.8,75.3,78.3,76.0,70.2,93,76,50,29.95,29.84,21,4,0,1.37
2013-7-14,96.6,80.5,74.9,78.0,74.4,71.7,94,82,53,29.95,29.87,23,3,0,0.11
2013-7-15,88.0,81.3,76.0,76.8,74.2,72.6,96,79,65,29.92,29.86,9,3,0,0.47
2013-7-16,92.2,84.4,76.4,74.6,72.9,69.3,89,69,50,29.96,29.87,5,2,0,0.00
2013-7-17,96.2,85.8,77.6,75.1,73.7,71.2,86,68,48,29.93,29.76,9,3,0,0.00
2013-7-18,95.1,86.9,80.4,75.9,73.3,68.1,86,65,44,29.78,29.69,14,6,0,0.00
2013-7-19,92.7,83.7,76.7,69.9,66.0,60.8,76,56,38,29.83,29.77,15,6,0,0.00
2013-7-20,96.1,83.5,71.2,70.0,64.6,61.1,78,55,32,29.88,29.77,9,3,0,0.00
2013-7-21,100.2,87.3,76.9,72.5,68.8,65.3,72,55,38,29.85,29.75,8,3,0,0.00
2013-7-22,98.1,87.0,79.9,77.6,75.8,73.7,84,70,51,29.85,29.74,9,3,0,0.01
2013-7-23,98.2,87.7,79.4,76.6,75.2,72.6,87,68,44,29.81,29.68,14,4,0,0.00
2013-7-24,94.3,84.3,75.4,76.8,74.6,71.6,94,73,48,29.70,29.57,7,3,0,0.55
2013-7-25,100.2,88.6,78.9,77.5,75.5,73.7,87,67,44,29.61,29.52,18,4,0,0.00
2013-7-26,100.5,89.2,80.0,77.4,75.2,71.9,86,65,41,29.64,29.55,11,4,0,0.00
2013-7-27,95.7,87.1,79.9,76.1,73.3,69.0,85,65,43,29.66,29.60,13,4,0,0.00
2013-7-28,97.0,86.3,78.9,76.8,73.5,69.8,83,67,45,29.72,29.66,11,4,0,0.01
2013-7-29,85.4,80.8,77.9,78.7,76.0,73.6,92,85,77,29.71,29.57,6,2,0,0.22
2013-7-30,97.7,87.8,81.2,80.0,77.9,76.9,87,73,54,29.60,29.52,13,5,0,0.08
2013-7-31,96.8,85.5,77.7,80.3,76.3,72.7,85,74,57,29.66,29.59,11,3,0,0.01
2013-8-1,93.4,84.8,78.7,78.7,77.2,75.6,92,79,58,29.73,29.63,13,4,0,0.25
2013-8-2,97.4,87.4,78.7,75.8,73.1,70.5,87,64,45,29.82,29.73,18,8,0,0.00
2013-8-3,96.8,85.4,76.2,72.7,70.5,69.1,81,62,43,29.86,29.74,12,5,0,0.00
2013-8-4,98.9,86.0,78.2,79.0,73.5,70.7,84,67,47,29.79,29.64,10,3,0,0.04
2013-8-5,97.8,86.1,78.7,79.0,76.3,74.7,94,74,49,29.71,29.62,12,4,0,0.36
2013-8-6,98.7,85.7,77.8,80.9,77.5,76.0,96,78,50,29.74,29.66,12,3,0,0.18
2013-8-7,101.0,87.8,77.8,79.4,76.7,74.7,92,71,46,29.78,29.66,13,4,0,0.04
2013-8-8,100.3,88.9,80.6,79.4,77.8,76.6,89,71,50,29.73,29.63,14,4,0,0.00
2013-8-9,102.8,90.8,81.1,80.9,77.7,75.5,86,67,44,29.72,29.65,9,3,0,0.00
2013-8-10,105.9,91.9,82.7,81.6,78.7,76.8,82,66,44,29.77,29.70,12,4,0,0.04
2013-8-11,106.0,91.6,82.2,81.3,78.1,72.9,88,67,37,29.82,29.73,15,5,0,0.00
2013-8-12,103.9,92.4,82.7,77.5,74.1,64.9,80,57,37,29.83,29.74,21,5,0,0.00
2013-8-13,103.4,89.8,77.8,72.0,69.6,62.3,79,54,33,29.85,29.75,12,4,0,0.00
2013-8-14,103.9,89.8,76.8,72.9,67.2,61.6,67,48,31,29.87,29.77,13,4,0,0.00
2013-8-15,103.2,91.6,81.8,76.3,74.1,70.4,80,58,37,29.87,29.73,7,3,0,0.00
2013-8-16,103.3,91.0,82.7,77.4,74.9,66.8,80,61,33,29.81,29.70,15,3,0,0.00
2013-8-17,101.4,89.8,79.8,76.6,73.7,68.3,84,61,38,29.80,29.69,12,3,0,0.00
2013-8-18,103.1,90.9,79.5,75.8,73.3,68.6,83,59,35,29.78,29.68,9,4,0,0.00
2013-8-19,103.8,91.7,82.2,77.2,74.7,71.4,80,59,37,29.78,29.67,11,4,0,0.00
2013-8-20,104.3,92.2,81.7,77.7,75.0,68.8,85,59,33,29.77,29.67,11,4,0,0.00
2013-8-21,103.1,89.9,82.2,80.2,77.5,74.2,87,68,43,29.79,29.70,16,4,0,0.45
2013-8-22,98.7,89.9,82.2,80.3,78.5,76.4,86,70,53,29.84,29.76,9,3,0,0.02
2013-8-23,98.7,90.2,84.2,80.5,78.0,76.1,82,68,53,29.82,29.67,12,4,0,0.07
2013-8-24,84.9,82.1,80.3,78.2,77.1,74.8,92,84,77,29.73,29.66,9,3,0,0.10
2013-8-25,84.5,79.7,75.5,77.3,74.4,69.0,97,84,61,29.67,29.56,12,4,0,1.10
2013-8-26,87.2,78.0,71.6,72.1,69.1,65.8,93,75,53,29.65,29.54,7,3,0,0.00
2013-8-27,93.2,80.7,70.9,72.4,68.0,64.7,91,68,42,29.73,29.57,18,4,0,0.00
2013-8-28,93.6,81.6,72.2,70.8,68.0,66.1,82,65,43,29.81,29.73,8,3,0,0.00
2013-8-29,97.9,84.2,73.2,75.0,70.9,68.0,87,66,42,29.77,29.65,11,4,0,0.00
2013-8-30,97.5,86.3,81.3,79.7,76.9,73.5,86,74,53,29.71,29.63,15,5,0,0.08
2013-8-31,95.8,86.2,77.5,79.6,76.4,74.9,92,74,54,29.71,29.61,18,5,0,0.31
2013-9-1,81.4,78.5,75.4,75.9,74.0,72.8,95,86,76,29.86,29.76,8,3,0,0.46
2013-9-2,79.7,77.5,75.6,76.3,75.0,73.9,96,92,88,29.88,29.82,8,2,0,0.87
2013-9-3,86.8,77.9,72.9,78.1,73.3,67.7,97,86,69,29.86,29.77,13,4,0,0.83
2013-9-4,86.5,75.0,68.8,75.9,70.5,66.8,95,86,68,29.77,29.63,16,6,0,0.76
2013-9-5,85.1,75.9,69.0,71.7,68.4,65.3,96,79,57,29.97,29.79,20,6,0,0.00
2013-9-6,88.9,78.3,69.6,71.3,68.5,66.2,89,73,55,30.03,29.94,13,5,0,0.00
2013-9-7,80.6,75.8,71.6,72.7,70.3,67.5,94,83,75,30.02,29.95,12,5,0,0.10
2013-9-8,84.9,76.8,73.0,73.7,71.7,68.6,97,84,65,29.95,29.89,13,3,0,0.38
2013-9-9,90.8,79.1,69.0,69.1,66.2,61.7,93,67,39,29.98,29.86,15,4,0,0.00
2013-9-10,89.9,80.1,71.1,71.9,68.6,65.2,82,68,52,29.93,29.85,16,4,0,0.00
2013-9-11,95.0,83.4,73.6,72.7,70.1,68.3,86,66,42,29.99,29.89,9,3,0,0.00
2013-9-12,95.2,84.5,77.0,76.3,74.1,72.4,86,72,50,30.03,29.92,10,3,0,0.00
2013-9-13,99.8,87.1,77.2,77.4,73.7,71.8,87,66,43,30.01,29.86,6,3,0,0.00
2013-9-14,94.6,85.9,80.3,74.8,73.7,71.9,80,67,51,29.92,29.80,16,6,0,0.00
2013-9-15,83.9,77.9,73.8,76.2,74.3,71.8,96,89,68,29.75,29.48,13,7,0,1.52
2013-9-16,82.8,74.1,72.2,99.9,66.6,54.7,98,74,43,29.85,29.03,32,12,0,3.42
2013-9-17,89.1,73.9,61.2,62.5,59.1,54.2,90,63,34,30.04,29.91,15,4,0,0.00
2013-9-18,92.1,77.1,65.0,67.8,63.1,59.3,85,63,40,30.11,29.99,14,4,0,0.00
2013-9-19,90.9,78.5,67.4,66.7,63.3,58.4,84,62,34,30.09,29.99,16,5,0,0.00
2013-9-20,92.8,80.0,68.1,66.8,61.2,49.1,75,54,23,30.09,29.95,12,3,0,0.00
2013-9-21,94.8,81.2,70.5,68.5,64.6,60.5,82,59,32,30.02,29.89,11,3,0,0.00
2013-9-22,92.2,80.8,72.1,68.4,65.4,63.9,77,60,41,30.00,29.92,13,4,0,0.00
2013-9-23,91.4,81.2,72.6,69.6,66.1,62.2,83,62,41,30.03,29.91,10,4,0,0.00
2013-9-24,90.9,81.0,71.5,68.0,65.7,63.1,79,60,44,29.95,29.80,13,5,0,0.00
2013-9-25,93.7,81.8,72.7,70.9,67.8,65.5,81,63,45,29.79,29.56,20,5,0,0.00
2013-9-26,79.2,74.0,68.7,69.1,58.2,48.5,77,58,41,29.88,29.62,28,13,0,0.00
2013-9-27,83.3,71.3,60.3,55.5,51.3,46.3,76,51,28,30.07,29.95,13,4,0,0.00
2013-9-28,87.1,74.5,66.0,62.6,59.3,57.0,79,60,41,30.11,30.03,13,6,0,0.00
2013-9-29,85.1,76.2,69.5,65.0,63.0,61.4,79,64,46,30.12,30.02,15,7,0,0.00
2013-9-30,85.9,77.1,68.6,64.6,62.2,59.4,78,61,43,30.06,29.94,11,3,0,0.00
2013-10-1,90.0,79.3,70.8,67.1,64.4,60.8,79,61,45,29.97,29.80,14,4,0,0.00
2013-10-2,85.9,78.0,70.3,71.2,67.0,62.5,93,70,47,29.81,29.67,11,4,0,0.09
2013-10-3,79.6,74.2,68.6,67.4,62.1,56.5,87,66,50,29.96,29.76,28,7,0,0.01
2013-10-4,80.0,70.6,61.3,59.2,57.0,53.4,87,64,42,30.11,29.99,11,4,0,0.00
2013-10-5,81.9,75.6,69.9,67.7,65.5,60.9,86,71,59,30.16,30.08,14,6,0,0.00
2013-10-6,91.3,81.5,73.1,71.2,69.0,67.0,88,67,46,30.22,30.14,15,7,0,0.00
2013-10-7,88.1,80.3,75.3,71.6,69.6,68.2,79,70,57,30.18,30.07,15,6,0,0.00
2013-10-8,85.4,79.0,74.5,70.9,69.3,67.5,81,72,60,30.09,29.92,13,5,0,0.00
2013-10-9,91.9,79.5,72.1,76.8,71.5,67.3,95,77,57,29.94,29.78,12,5,0,0.90
2013-10-10,93.6,80.7,71.6,73.3,70.8,68.4,92,73,50,30.02,29.93,8,3,0,0.00
2013-10-11,92.3,82.4,76.8,73.8,70.7,65.4,86,69,46,29.94,29.78,14,5,0,0.00
2013-10-12,81.5,75.0,67.9,71.2,58.8,49.9,84,58,40,30.01,29.81,22,7,0,0.00
2013-10-13,79.5,66.5,59.7,55.9,53.9,52.1,82,65,41,30.12,30.03,20,3,0,0.00
2013-10-15,66.2,65.3,64.6,64.0,63.8,63.3,96,94,92,29.51,29.38,11,6,0,0.47
2013-10-16,69.3,65.4,60.3,63.8,57.8,50.6,97,77,61,29.99,29.20,24,10,0,0.60
2013-10-17,70.6,62.1,56.2,53.4,48.4,43.6,86,62,40,30.32,30.10,17,6,0,0.00
2013-10-18,71.4,62.5,55.2,56.4,51.2,46.2,76,67,52,30.36,30.27,12,4,0,0.00
2013-10-19,70.7,65.2,60.2,61.3,58.8,55.3,97,80,59,30.32,30.20,16,4,0,0.25
2013-10-20,66.7,63.6,61.4,63.9,61.6,60.1,97,93,88,30.17,29.92,12,5,0,0.93
2013-10-21,80.4,68.7,61.2,64.9,61.7,59.9,96,79,52,29.94,29.87,13,3,0,0.00
2013-10-22,77.6,67.6,59.3,64.7,60.8,58.0,96,79,64,30.09,29.97,10,3,0,0.00
2013-10-23,70.2,66.5,63.9,64.0,61.8,59.6,93,85,76,30.11,30.06,12,6,0,0.36
2013-10-24,73.4,68.1,64.9,65.2,62.1,59.9,93,81,68,30.04,29.85,14,6,0,0.28
2013-10-25,70.1,67.7,65.7,67.1,65.8,65.2,98,93,86,29.78,29.65,8,5,0,0.39
2013-10-30,75.1,68.1,63.8,54.5,52.4,50.6,66,57,43,30.16,30.05,13,8,0,0.00
2013-10-31,73.3,61.8,53.7,55.2,52.3,48.7,91,72,49,30.27,30.17,13,3,0,0.00
2013-11-1,72.8,61.1,52.3,54.4,50.5,47.3,94,70,43,30.29,30.20,12,4,0,0.00
2013-11-2,72.2,60.5,51.0,58.8,52.2,47.9,92,75,55,30.28,30.14,6,2,0,0.00
2013-11-3,65.5,62.1,60.0,62.0,59.1,56.3,98,90,80,30.15,29.96,6,2,0,0.29
2013-11-4,64.4,61.8,60.8,61.4,59.3,54.0,99,91,69,29.98,29.92,6,2,0,0.15
2013-11-5,56.0,54.6,53.7,53.2,52.4,51.6,93,92,90,30.24,30.22,3,2,0,0.00
2013-11-6,70.9,62.2,49.0,58.0,53.1,47.1,93,73,52,30.30,30.08,9,2,0,0.00
2013-11-7,72.8,63.9,58.9,64.2,58.2,45.7,96,82,51,30.08,29.90,16,3,0,0.37
2013-11-8,73.3,60.8,50.5,53.1,48.9,43.5,95,68,37,30.29,30.07,11,3,0,0.00
2013-11-9,67.7,59.6,51.4,51.6,49.8,46.1,90,71,50,30.39,30.22,9,2,0,0.00
2013-11-10,64.4,59.6,56.4,62.0,56.6,51.8,96,89,81,30.10,29.71,10,2,0,0.49
2013-11-11,63.1,55.7,48.0,54.0,48.7,41.9,90,77,52,29.94,29.76,18,6,0,0.00
2013-11-12,54.8,49.4,44.8,47.3,43.6,41.7,90,80,66,29.97,29.88,10,3,0,0.00
2013-11-13,58.3,49.8,44.2,46.5,42.6,39.8,89,76,57,30.19,29.95,18,4,0,0.02
2013-11-14,63.9,52.7,44.4,45.5,42.5,36.8,94,71,41,30.27,30.14,6,2,0,0.00
2013-11-15,63.1,55.8,51.5,55.5,51.8,48.1,97,86,72,30.15,30.02,8,2,0,0.45
2013-11-16,66.9,55.6,48.0,52.9,49.3,46.7,100,81,53,30.08,29.95,5,2,0,0.00
2013-11-17,50.2,46.9,44.4,47.9,45.0,42.8,95,93,88,29.98,29.91,4,1,0,0.00
2013-11-23,63.2,56.2,46.0,43.9,39.4,35.1,79,54,37,30.23,30.10,10,2,0,0.00
2013-11-24,63.2,51.7,42.8,45.3,42.1,40.2,91,71,45,30.21,30.06,6,2,0,0.00
2013-11-25,65.6,56.6,48.7,58.0,49.4,43.2,95,77,55,30.03,29.54,8,3,0,0.44
2013-11-26,58.4,52.0,45.4,39.8,33.5,27.0,68,50,36,30.06,29.77,13,5,0,0.00
2013-11-27,59.7,48.9,39.5,48.8,37.2,32.4,89,65,41,30.09,29.82,9,2,0,0.08
2013-11-28,52.5,48.4,40.8,41.2,29.7,21.2,66,49,31,29.98,29.87,18,5,0,0.00
2013-11-29,52.2,43.5,35.2,37.4,29.6,25.8,91,60,36,30.03,29.89,12,4,0,0.00
2013-11-30,56.0,44.9,35.4,36.8,31.8,27.9,81,61,38,30.15,30.05,7,2,0,0.00
2013-12-1,59.5,47.3,37.3,41.6,37.8,34.8,90,71,44,30.12,30.01,8,2,0,0.00
2013-12-2,59.7,48.6,39.1,43.4,40.3,37.0,93,74,49,30.09,29.99,10,2,0,0.00
2013-12-3,59.0,48.5,39.7,43.3,38.5,34.6,95,71,41,30.11,29.99,9,2,0,0.00
2013-12-4,59.6,48.1,39.0,42.4,38.8,36.3,91,71,44,30.03,29.94,8,2,0,0.00
2013-12-5,60.2,49.6,40.8,44.0,40.4,38.2,94,72,48,30.09,29.96,8,2,0,0.00
2013-12-6,59.3,50.0,41.7,44.3,40.3,37.9,90,71,46,29.96,29.86,8,3,0,0.00
2013-12-7,58.0,48.4,40.3,42.1,38.9,35.4,92,71,44,30.12,29.96,13,4,0,0.00
2013-12-8,54.8,47.1,41.2,40.8,37.7,33.0,87,71,48,30.23,30.14,9,3,0,0.00
2013-12-9,57.9,45.8,35.3,41.2,36.3,33.3,92,71,43,30.20,29.79,7,2,0,0.00
2013-12-10,54.8,50.4,45.9,50.7,43.3,30.1,98,78,53,29.84,29.37,20,6,0,0.47
2013-12-11,54.6,46.3,39.2,42.5,34.2,29.9,80,63,42,29.83,29.67,15,4,0,0.01
2013-12-12,49.6,43.5,38.5,30.1,26.5,23.5,70,51,38,30.09,29.80,13,5,0,0.00
2013-12-13,52.2,40.1,33.8,41.9,31.3,23.2,89,71,49,30.09,29.89,16,4,0,0.02
2013-12-14,49.7,41.4,34.6,28.1,24.3,20.9,67,51,35,30.19,30.08,15,5,0,0.00
2013-12-15,49.9,43.1,39.3,38.5,31.4,26.5,80,63,51,30.24,30.10,13,5,0,0.00
2013-12-16,49.5,45.8,41.5,35.1,32.3,29.4,70,59,49,30.25,30.17,14,5,0,0.00
2013-12-17,51.8,45.5,40.7,38.3,35.5,34.1,78,68,53,30.23,30.13,14,2,0,0.00
2013-12-18,46.6,44.2,41.4,43.8,40.8,37.5,96,88,74,30.11,29.89,11,3,0,0.41
2013-12-19,51.4,47.0,43.8,47.7,44.9,42.4,97,92,84,29.91,29.82,6,2,0,0.04
2013-12-20,49.0,42.6,37.3,40.3,30.5,22.9,87,63,41,29.83,29.75,16,6,0,0.01
2013-12-21,47.8,42.3,40.1,40.7,36.9,33.9,89,81,69,30.04,29.83,16,6,0,0.06
2013-12-22,46.6,41.5,38.0,36.6,33.3,28.9,90,73,54,30.26,30.08,18,5,0,0.00
2013-12-23,53.6,44.1,39.4,33.8,29.2,25.9,70,56,37,30.27,30.14,12,3,0,0.00
2013-12-24,51.5,44.0,40.3,37.5,34.6,30.1,84,69,54,30.29,30.14,14,4,0,0.00
2013-12-25,54.2,45.3,39.3,35.3,31.4,27.6,77,59,39,30.36,30.24,10,3,0,0.00
2013-12-26,49.2,43.8,39.8,43.7,37.4,33.8,97,78,60,30.25,29.85,11,3,0,0.38
2013-12-27,46.3,42.3,37.2,42.6,38.3,33.3,96,85,70,29.79,29.61,16,5,0,0.03
2013-12-28,47.2,37.9,33.4,36.0,30.0,24.8,94,74,44,29.95,29.82,11,5,0,0.00
2013-12-29,47.2,38.6,31.2,29.1,25.3,19.6,85,60,35,30.06,29.95,12,3,0,0.00
2013-12-30,49.8,39.7,30.2,32.3,28.8,24.9,90,66,43,30.09,29.95,12,3,0,0.00
2013-12-31,54.2,44.5,35.7,39.7,34.2,28.1,95,69,38,29.99,29.86,12,3,0,0.00
2014-1-1,54.8,46.1,38.7,39.7,35.2,31.2,91,68,40,29.91,29.80,13,4,0,0.00
2014-1-2,48.0,44.2,40.0,37.4,33.6,31.0,84,66,55,30.12,29.92,12,4,0,0.00